FW0764 Weather Reports


time (UTC)temp
C
wind
direction
speed
KPH
gust
KPH
rain 1hr
cm
rain 24hr
cm
rain mn
cm
humidity
%
barometer
mb
20200229101516 11 315 6.4 6.4 0.00 0.00 0.00 43 1015.5
20200229100516 10 315 6.4 8.0 0.00 0.00 0.00 46 1015.6
20200229095517 11 315 4.8 6.4 0.00 0.00 0.00 45 1015.8
20200229094516 11 337 4.8 4.8 0.00 0.00 0.00 44 1015.9
20200229093516 11 315 3.2 4.8 0.00 0.00 0.00 45 1016.0
20200229092517 11 315 4.8 6.4 0.00 0.00 0.00 45 1016.1
20200229090516 11 292 6.4 8.0 0.00 0.00 0.00 44 1016.4
20200229085516 12 292 4.8 6.4 0.00 0.00 0.00 44 1016.4
20200229084516 12 292 4.8 6.4 0.00 0.00 0.00 44 1016.5
20200229083516 12 292 1.6 3.2 0.00 0.00 0.00 42 1016.8
20200229082516 12 292 1.6 3.2 0.00 0.00 0.00 42 1016.9
20200229081516 11 270 3.2 4.8 0.00 0.00 0.00 45 1016.9
20200229080516 11 292 3.2 3.2 0.00 0.00 0.00 45 1017.0
20200229075516 11 315 1.6 1.6 0.00 0.00 0.00 45 1017.0
20200229074516 11 315 1.6 3.2 0.00 0.00 0.00 45 1017.0
20200229073516 11 315 3.2 3.2 0.00 0.00 0.00 44 1017.1
20200229072516 12 292 4.8 9.7 0.00 0.00 0.00 42 1017.2
20200229071516 12 270 4.8 6.4 0.00 0.00 0.00 41 1017.4
20200229070516 12 270 3.2 4.8 0.00 0.00 0.00 42 1017.4
20200229065516 12 270 3.2 4.8 0.00 0.00 0.00 41 1017.6
20200229064516 12 292 3.2 4.8 0.00 0.00 0.00 41 1017.8
20200229063515 13 292 3.2 4.8 0.00 0.00 0.00 39 1017.8
20200229062516 14 315 4.8 4.8 0.00 0.00 0.00 35 1017.8
20200229061515 14 337 6.4 8.0 0.00 0.00 0.00 35 1017.7
20200229060515 14 337 8.0 9.7 0.00 0.00 0.00 35 1017.7
20200229055515 15 315 6.4 8.0 0.00 0.00 0.00 34 1017.7
20200229054516 15 337 6.4 9.7 0.00 0.00 0.00 34 1017.5
20200229053516 15 315 4.8 6.4 0.00 0.00 0.00 34 1017.4
20200229052515 15 315 6.4 8.0 0.00 0.00 0.00 34 1017.5
20200229051515 15 315 4.8 4.8 0.00 0.00 0.00 33 1017.4
20200229050515 15 337 3.2 4.8 0.00 0.00 0.00 34 1017.5
20200229045516 16 337 1.6 3.2 0.00 0.00 0.00 35 1017.4
20200229044516 16 0.0 1.6 0.00 0.00 0.00 33 1017.5
20200229043515 17 67 3.2 4.8 0.00 0.00 0.00 31 1017.5
20200229042515 17 270 6.4 9.7 0.00 0.00 0.00 29 1017.4
20200229041516 17 270 6.4 9.7 0.00 0.00 0.00 29 1017.2
20200229040517 17 270 3.2 4.8 0.00 0.00 0.00 28 1017.2
20200229035515 18 270 4.8 6.4 0.00 0.00 0.00 27 1017.0
20200229034517 18 270 6.4 9.7 0.00 0.00 0.00 27 1017.0
20200229033517 18 270 8.0 11.3 0.00 0.00 0.00 27 1017.0
20200229032518 18 270 6.4 9.7 0.00 0.00 0.00 26 1016.9
20200229031518 18 292 6.4 9.7 0.00 0.00 0.00 26 1016.7
20200229030517 19 270 4.8 6.4 0.00 0.00 0.00 25 1016.7
20200229025517 19 292 4.8 8.0 0.00 0.00 0.00 25 1016.6
20200229024517 20 270 3.2 4.8 0.00 0.00 0.00 24 1016.5
20200229023515 20 270 6.4 9.7 0.00 0.00 0.00 24 1016.5
20200229022517 20 292 4.8 6.4 0.00 0.00 0.00 24 1016.4
20200229021517 21 292 4.8 6.4 0.00 0.00 0.00 24 1016.3
20200229020517 21 270 4.8 9.7 0.00 0.00 0.00 25 1016.3
20200229015517 21 270 4.8 6.4 0.00 0.00 0.00 25 1016.2
20200229014517 21 270 3.2 4.8 0.00 0.00 0.00 25 1016.3
20200229013517 22 270 3.2 4.8 0.00 0.00 0.00 23 1016.4
20200229012517 22 270 3.2 4.8 0.00 0.00 0.00 22 1016.3
20200229011517 23 270 1.6 3.2 0.00 0.00 0.00 21 1016.4
20200229010518 24 247 1.6 3.2 0.00 0.00 0.00 19 1016.5
20200229005517 25 247 3.2 4.8 0.00 0.00 0.00 18 1016.6
20200229004517 25 247 4.8 6.4 0.00 0.00 0.00 16 1016.6
20200229003517 26 247 4.8 6.4 0.00 0.00 0.00 15 1016.6
20200229002517 26 247 4.8 6.4 0.00 0.00 0.00 14 1016.7
20200229001517 26 225 6.4 8.0 0.00 0.00 0.00 13 1016.7
20200229000519 27 225 8.0 11.3 0.00 0.00 0.00 12 1016.6
20200228235517 27 247 9.7 11.3 0.00 0.00 0.00 11 1016.6
20200228234517 27 270 4.8 6.4 0.00 0.00 0.00 13 1016.5
20200228233517 27 247 8.0 11.3 0.00 0.00 0.00 13 1016.5
20200228232516 27 247 6.4 8.0 0.00 0.00 0.00 12 1016.5
20200228231517 27 247 9.7 12.9 0.00 0.00 0.00 13 1016.6
20200228230517 27 225 8.0 9.7 0.00 0.00 0.00 12 1016.5
20200228225516 27 225 9.7 11.3 0.00 0.00 0.00 11 1016.8
20200228224518 27 247 6.4 11.3 0.00 0.00 0.00 12 1016.8
20200228223517 27 225 9.7 14.5 0.00 0.00 0.00 12 1016.8
20200228222516 27 270 3.2 4.8 0.00 0.00 0.00 12 1016.8
20200228221516 27 0.0 1.6 0.00 0.00 0.00 10 1017.0
20200228220516 27 202 4.8 6.4 0.00 0.00 0.00 11 1017.0
20200228215516 27 157 3.2 3.2 0.00 0.00 0.00 10 1016.9
20200228214516 27 202 3.2 4.8 0.00 0.00 0.00 11 1016.8
20200228213516 27 180 1.6 3.2 0.00 0.00 0.00 10 1016.5
20200228212517 27 202 4.8 6.4 0.00 0.00 0.00 11 1016.6
20200228211517 27 135 4.8 6.4 0.00 0.00 0.00 12 1016.6
20200228210516 28 90 4.8 6.4 0.00 0.00 0.00 11 1016.6
20200228205516 27 0.0 3.2 0.00 0.00 0.00 12 1016.8
20200228204516 27 247 3.2 4.8 0.00 0.00 0.00 12 1016.8
20200228203518 27 135 3.2 4.8 0.00 0.00 0.00 13 1016.9
20200228202516 27 90 3.2 4.8 0.00 0.00 0.00 14 1017.0
20200228201516 26 22 3.2 4.8 0.00 0.00 0.00 15 1017.2
20200228200516 26 180 1.6 3.2 0.00 0.00 0.00 14 1017.3
20200228195516 26 90 1.6 4.8 0.00 0.00 0.00 15 1017.6
20200228194516 26 157 3.2 6.4 0.00 0.00 0.00 15 1017.9
20200228193516 25 157 1.6 1.6 0.00 0.00 0.00 15 1018.1
20200228192517 25 157 8.0 11.3 0.00 0.00 0.00 15 1018.2
20200228191516 25 157 4.8 6.4 0.00 0.00 0.00 15 1018.2
20200228190516 25 135 3.2 4.8 0.00 0.00 0.00 16 1018.5
20200228185516 25 180 3.2 4.8 0.00 0.00 0.00 16 1018.6
20200228184517 25 45 1.6 3.2 0.00 0.00 0.00 17 1018.6
20200228183516 24 67 3.2 4.8 0.00 0.00 0.00 16 1018.7
20200228182516 24 112 4.8 6.4 0.00 0.00 0.00 16 1018.8
20200228181516 24 90 4.8 6.4 0.00 0.00 0.00 16 1018.9
20200228180516 24 22 1.6 3.2 0.00 0.00 0.00 16 1019.0
20200228175516 23 90 4.8 6.4 0.00 0.00 0.00 16 1019.0
20200228174516 23 112 3.2 3.2 0.00 0.00 0.00 15 1019.2
20200228173516 23 202 3.2 4.8 0.00 0.00 0.00 16 1019.3
20200228172516 23 112 3.2 4.8 0.00 0.00 0.00 16 1019.2
20200228171515 22 90 1.6 3.2 0.00 0.00 0.00 17 1019.2
20200228170515 22 22 3.2 4.8 0.00 0.00 0.00 18 1019.1
20200228165515 22 112 1.6 3.2 0.00 0.00 0.00 17 1019.3
20200228164516 21 90 1.6 1.6 0.00 0.00 0.00 18 1019.2
20200228163517 21 0 3.2 4.8 0.00 0.00 0.00 21 1019.2
20200228162515 21 0 4.8 6.4 0.00 0.00 0.00 20 1019.2
20200228161516 20 337 3.2 4.8 0.00 0.00 0.00 21 1019.3
20200228160515 20 337 3.2 4.8 0.00 0.00 0.00 20 1019.1
20200228155516 19 337 6.4 8.0 0.00 0.00 0.00 21 1019.0
20200228154515 18 315 6.4 8.0 0.00 0.00 0.00 23 1018.8
20200228153515 17 315 6.4 9.7 0.00 0.00 0.00 26 1018.7
20200228152516 16 337 8.0 12.9 0.00 0.00 0.00 26 1018.6
20200228151515 16 337 8.0 9.7 0.00 0.00 0.00 26 1018.5
20200228150516 16 337 8.0 9.7 0.00 0.00 0.00 27 1018.4
20200228145515 15 315 6.4 8.0 0.00 0.00 0.00 28 1018.4
20200228144516 15 315 4.8 6.4 0.00 0.00 0.00 29 1018.2
20200228143515 15 337 6.4 8.0 0.00 0.00 0.00 28 1018.1
20200228142515 14 337 8.0 9.7 0.00 0.00 0.00 30 1017.9
20200228141515 13 337 4.8 6.4 0.00 0.00 0.00 31 1017.9
20200228140515 12 315 6.4 6.4 0.00 0.00 0.00 34 1017.8
20200228135515 12 315 4.8 6.4 0.00 0.00 0.00 36 1017.6
20200228134515 12 315 4.8 6.4 0.00 0.00 0.00 36 1017.4
20200228133517 12 337 3.2 3.2 0.00 0.00 0.00 35 1017.4
20200228132517 12 337 3.2 4.8 0.00 0.00 0.00 34 1017.4
20200228131517 12 337 4.8 6.4 0.00 0.00 0.00 34 1017.4
20200228130517 12 337 4.8 6.4 0.00 0.00 0.00 33 1017.4
20200228125517 12 337 4.8 6.4 0.00 0.00 0.00 33 1017.4
20200228124517 12 337 4.8 6.4 0.00 0.00 0.00 33 1017.3
20200228123517 13 0 3.2 4.8 0.00 0.00 0.00 32 1017.4
20200228122517 13 337 4.8 6.4 0.00 0.00 0.00 30 1017.4
20200228121517 13 0 3.2 3.2 0.00 0.00 0.00 29 1017.4
20200228120517 13 315 4.8 4.8 0.00 0.00 0.00 30 1017.4
20200228115517 14 292 4.8 4.8 0.00 0.00 0.00 28 1017.2
20200228114517 14 315 4.8 6.4 0.00 0.00 0.00 26 1017.0
20200228113517 15 315 6.4 6.4 0.00 0.00 0.00 26 1016.9
20200228112517 15 315 4.8 6.4 0.00 0.00 0.00 26 1016.9
20200228111517 15 292 6.4 8.0 0.00 0.00 0.00 26 1016.9
20200228110517 15 315 6.4 8.0 0.00 0.00 0.00 25 1016.8
20200228105517 15 315 6.4 8.0 0.00 0.00 0.00 26 1016.6
20200228104518 15 315 6.4 8.0 0.00 0.00 0.00 26 1016.5
20200228103517 15 337 6.4 8.0 0.00 0.00 0.00 26 1016.5
20200228102517 15 315 4.8 6.4 0.00 0.00 0.00 27 1016.6